createdAt,value
2019-01-30T00:01:32.391Z,11.00
2019-01-30T00:03:59.606Z,14.93
2019-01-30T00:06:26.856Z,14.00
2019-01-30T00:08:54.108Z,13.90
2019-01-30T00:11:21.338Z,10.37
2019-01-30T00:13:48.564Z,13.17
2019-01-30T00:16:15.827Z,7.77
2019-01-30T00:18:43.068Z,10.67
2019-01-30T00:21:10.312Z,8.43
2019-01-30T00:23:37.539Z,13.60
2019-01-30T00:26:04.789Z,10.70
2019-01-30T00:28:32.032Z,10.87
2019-01-30T00:30:59.280Z,7.33
2019-01-30T00:33:26.637Z,10.73
2019-01-30T00:35:53.867Z,9.87
2019-01-30T00:38:21.120Z,6.63
2019-01-30T00:40:48.371Z,10.60
2019-01-30T00:43:15.595Z,6.77
2019-01-30T00:45:42.855Z,7.00
2019-01-30T00:48:10.127Z,8.70
2019-01-30T00:50:37.355Z,6.40
2019-01-30T00:53:04.640Z,8.27
2019-01-30T00:55:31.875Z,10.47
2019-01-30T00:57:59.251Z,8.90
2019-01-30T01:00:26.847Z,6.40
2019-01-30T01:02:54.120Z,6.73
2019-01-30T01:05:21.655Z,10.60
2019-01-30T01:07:49.010Z,6.93
2019-01-30T01:10:16.469Z,7.63
2019-01-30T01:12:43.931Z,9.93
2019-01-30T01:15:12.183Z,9.47
2019-01-30T01:17:39.436Z,9.43
2019-01-30T01:20:08.452Z,10.10
2019-01-30T01:22:35.691Z,15.70
2019-01-30T01:25:04.256Z,22.60
2019-01-30T01:27:31.512Z,21.40
2019-01-30T01:29:58.739Z,23.33
2019-01-30T01:32:25.979Z,16.67
2019-01-30T01:34:53.235Z,14.27
2019-01-30T01:37:20.460Z,14.47
2019-01-30T01:39:47.680Z,10.73
2019-01-30T01:42:14.929Z,9.17
2019-01-30T01:44:42.183Z,9.90
2019-01-30T01:47:09.413Z,8.60
2019-01-30T01:49:36.655Z,8.73
2019-01-30T01:52:03.925Z,10.27
2019-01-30T01:54:31.146Z,6.50
2019-01-30T01:56:58.389Z,6.23
2019-01-30T01:59:25.618Z,6.27
2019-01-30T02:01:52.855Z,7.90
2019-01-30T02:04:20.118Z,8.33
2019-01-30T02:06:47.352Z,7.20
2019-01-30T02:09:14.623Z,7.87
2019-01-30T02:11:41.887Z,9.47
2019-01-30T02:14:09.226Z,7.20
2019-01-30T02:16:36.470Z,7.07
2019-01-30T02:19:03.699Z,10.00
2019-01-30T02:21:30.951Z,8.57
2019-01-30T02:23:58.190Z,8.43
2019-01-30T02:26:25.412Z,6.23
2019-01-30T02:28:52.664Z,8.93
2019-01-30T02:31:19.891Z,8.37
2019-01-30T02:33:47.141Z,10.83
2019-01-30T02:36:14.392Z,10.57
2019-01-30T02:38:41.619Z,9.63
2019-01-30T02:41:08.852Z,9.93
2019-01-30T02:43:36.108Z,7.27
2019-01-30T02:46:03.441Z,5.90
2019-01-30T02:48:30.711Z,8.27
2019-01-30T02:50:57.963Z,5.53
2019-01-30T02:53:25.187Z,10.40
2019-01-30T02:55:52.414Z,6.47
2019-01-30T02:58:19.675Z,10.37
2019-01-30T03:00:58.494Z,7.07
2019-01-30T03:03:16.051Z,10.67
2019-01-30T03:05:43.294Z,8.17
2019-01-30T03:08:10.540Z,6.37
2019-01-30T03:10:37.767Z,7.53
2019-01-30T03:13:04.996Z,6.87
2019-01-30T03:15:32.255Z,7.77
2019-01-30T03:17:59.489Z,7.73
2019-01-30T03:20:26.860Z,7.90
2019-01-30T03:22:54.515Z,10.37
2019-01-30T03:25:23.439Z,6.30
2019-01-30T03:27:51.079Z,8.57
2019-01-30T03:30:21.041Z,6.67
2019-01-30T03:32:48.833Z,6.63
2019-01-30T03:35:16.704Z,5.70
2019-01-30T03:37:44.004Z,11.33
2019-01-30T03:40:13.341Z,13.20
2019-01-30T03:42:40.563Z,8.93
2019-01-30T03:45:08.824Z,8.63
2019-01-30T03:47:36.138Z,6.40
2019-01-30T03:50:04.189Z,7.17
2019-01-30T03:52:31.440Z,9.40
2019-01-30T03:54:58.674Z,9.73
2019-01-30T03:57:25.931Z,11.80
2019-01-30T03:59:53.168Z,9.63
2019-01-30T04:02:20.499Z,12.57
2019-01-30T04:04:47.756Z,7.27
2019-01-30T04:07:14.987Z,8.23
2019-01-30T04:09:42.225Z,8.83
2019-01-30T04:12:09.515Z,10.20
2019-01-30T04:14:36.755Z,8.77
2019-01-30T04:17:03.975Z,8.53
2019-01-30T04:19:31.227Z,9.40
2019-01-30T04:22:04.643Z,8.37
2019-01-30T04:24:31.890Z,7.50
2019-01-30T04:26:59.144Z,8.07
2019-01-30T04:29:26.395Z,6.57
2019-01-30T04:31:53.643Z,10.67
2019-01-30T04:34:20.879Z,5.33
2019-01-30T04:36:48.146Z,7.90
2019-01-30T04:39:15.376Z,6.53
2019-01-30T04:41:42.652Z,8.00
2019-01-30T04:44:09.953Z,8.13
2019-01-30T04:46:37.175Z,7.80
2019-01-30T04:49:04.439Z,7.53
2019-01-30T04:51:31.717Z,7.87
2019-01-30T04:53:59.080Z,8.33
2019-01-30T04:56:26.308Z,10.03
2019-01-30T04:58:53.585Z,7.57
2019-01-30T05:01:20.911Z,9.67
2019-01-30T05:03:48.154Z,9.13
2019-01-30T05:06:15.416Z,7.17
2019-01-30T05:08:42.661Z,11.13
2019-01-30T05:11:09.999Z,9.47
2019-01-30T05:13:37.248Z,8.33
2019-01-30T05:16:04.493Z,10.20
2019-01-30T05:18:31.775Z,7.53
2019-01-30T05:20:59.141Z,8.13
2019-01-30T05:23:26.374Z,9.73
2019-01-30T05:25:53.623Z,7.97
2019-01-30T05:28:20.868Z,8.63
2019-01-30T05:30:48.127Z,6.90
2019-01-30T05:33:15.384Z,13.17
2019-01-30T05:35:42.618Z,7.93
2019-01-30T05:38:09.872Z,7.27
2019-01-30T05:40:37.113Z,7.43
2019-01-30T05:43:04.349Z,10.87
2019-01-30T05:45:31.584Z,10.70
2019-01-30T05:47:58.934Z,7.63
2019-01-30T05:50:26.159Z,7.90
2019-01-30T05:52:53.405Z,11.90
2019-01-30T05:55:20.640Z,8.17
2019-01-30T05:57:47.898Z,8.83
2019-01-30T06:00:38.019Z,7.93
2019-01-30T06:03:05.285Z,9.23
2019-01-30T06:05:32.507Z,7.97
2019-01-30T06:07:59.762Z,8.53
2019-01-30T06:10:26.993Z,12.93
2019-01-30T06:12:54.312Z,7.93
2019-01-30T06:15:21.651Z,8.63
2019-01-30T06:18:08.387Z,16.67
2019-01-30T06:20:35.748Z,12.23
2019-01-30T06:23:03.104Z,11.47
2019-01-30T06:25:30.384Z,10.93
2019-01-30T06:27:57.699Z,10.73
2019-01-30T06:30:25.169Z,10.13
2019-01-30T06:32:52.523Z,13.03
2019-01-30T06:35:19.764Z,11.33
2019-01-30T06:37:47.035Z,9.37
2019-01-30T06:40:19.764Z,10.70
2019-01-30T06:42:47.162Z,13.00
2019-01-30T06:45:14.372Z,13.50
2019-01-30T06:47:41.618Z,15.93
2019-01-30T06:50:09.894Z,15.53
2019-01-30T06:52:37.151Z,15.53
2019-01-30T06:55:05.234Z,16.40
2019-01-30T06:57:32.467Z,15.73
2019-01-30T06:59:59.731Z,16.10
2019-01-30T07:02:32.254Z,16.50
2019-01-30T07:04:56.258Z,16.73
2019-01-30T07:07:23.507Z,18.83
2019-01-30T07:09:54.771Z,19.03
2019-01-30T07:12:22.023Z,20.83
2019-01-30T07:14:49.260Z,20.10
2019-01-30T07:17:16.537Z,20.23
2019-01-30T07:19:43.773Z,20.97
2019-01-30T07:22:11.121Z,24.37
2019-01-30T07:24:38.388Z,22.00
2019-01-30T07:27:05.623Z,20.83
2019-01-30T07:29:32.846Z,17.43
2019-01-30T07:32:00.131Z,21.47
2019-01-30T07:34:27.363Z,21.23
2019-01-30T07:36:54.603Z,22.67
2019-01-30T07:39:21.846Z,18.50
2019-01-30T07:41:49.174Z,21.23
2019-01-30T07:44:16.887Z,22.33
2019-01-30T07:46:44.199Z,21.47
2019-01-30T07:49:11.432Z,17.90
2019-01-30T07:51:46.090Z,20.87
2019-01-30T07:54:15.565Z,23.63
2019-01-30T07:56:42.791Z,21.63
2019-01-30T07:59:10.104Z,27.03
2019-01-30T08:01:37.435Z,20.57
2019-01-30T08:04:04.804Z,25.60
2019-01-30T08:06:32.031Z,25.10
2019-01-30T08:08:59.279Z,23.97
2019-01-30T08:11:26.637Z,24.23
2019-01-30T08:13:56.107Z,24.10
2019-01-30T08:16:23.327Z,25.07
2019-01-30T08:18:50.575Z,23.03
2019-01-30T08:21:17.935Z,25.90
2019-01-30T08:23:45.288Z,22.23
2019-01-30T08:26:12.853Z,25.83
2019-01-30T08:28:40.354Z,23.83
2019-01-30T08:31:07.912Z,23.40
2019-01-30T08:33:35.521Z,22.37
2019-01-30T08:36:03.017Z,23.33
2019-01-30T08:38:30.279Z,21.07
2019-01-30T08:40:57.590Z,21.17
2019-01-30T08:43:24.879Z,23.23
2019-01-30T08:45:52.139Z,17.10
2019-01-30T08:48:19.415Z,20.97
2019-01-30T08:50:46.734Z,18.50
2019-01-30T08:53:14.085Z,19.20
2019-01-30T08:55:41.478Z,17.17
2019-01-30T08:58:08.846Z,20.10
2019-01-30T09:00:36.257Z,19.63
2019-01-30T09:03:14.203Z,18.20
2019-01-30T09:05:37.274Z,21.93
2019-01-30T09:08:04.858Z,19.13
2019-01-30T09:10:32.243Z,21.23
2019-01-30T09:12:59.567Z,19.80
2019-01-30T09:15:27.553Z,20.13
2019-01-30T09:17:55.032Z,22.30
2019-01-30T09:20:22.883Z,17.80
2019-01-30T09:22:50.263Z,22.03
2019-01-30T09:25:19.435Z,21.87
2019-01-30T09:27:46.746Z,18.53
2019-01-30T09:30:22.497Z,18.03
2019-01-30T09:32:49.809Z,18.10
2019-01-30T09:35:17.322Z,18.80
2019-01-30T09:37:44.664Z,19.03
2019-01-30T09:40:12.708Z,15.60
2019-01-30T09:42:40.005Z,19.57
2019-01-30T09:45:09.999Z,21.17
2019-01-30T09:47:37.488Z,17.63
2019-01-30T09:50:07.967Z,18.67
2019-01-30T09:52:35.360Z,18.23
2019-01-30T09:55:02.773Z,15.80
2019-01-30T09:57:30.124Z,17.20
2019-01-30T09:59:57.524Z,18.90
2019-01-30T10:02:25.463Z,14.67
2019-01-30T10:04:53.007Z,19.80
2019-01-30T10:07:20.311Z,15.70
2019-01-30T10:09:47.691Z,15.63
2019-01-30T10:12:14.952Z,20.27
2019-01-30T10:14:42.279Z,18.17
2019-01-30T10:17:09.628Z,19.90
2019-01-30T10:19:40.027Z,17.57
2019-01-30T10:22:06.175Z,22.03
2019-01-30T10:24:33.548Z,22.23
2019-01-30T10:27:00.799Z,20.73
2019-01-30T10:29:28.095Z,17.03
2019-01-30T10:31:55.375Z,24.53
2019-01-30T10:34:22.590Z,16.43
2019-01-30T10:36:49.835Z,17.73
2019-01-30T10:39:17.088Z,18.27
2019-01-30T10:41:44.486Z,19.60
2019-01-30T10:44:11.738Z,32.23
2019-01-30T10:46:39.020Z,24.40
2019-01-30T10:49:06.345Z,22.00
2019-01-30T10:51:33.619Z,17.80
2019-01-30T10:54:00.865Z,25.60
2019-01-30T10:56:28.116Z,17.57
2019-01-30T10:58:55.347Z,19.03
2019-01-30T11:01:22.624Z,17.03
2019-01-30T11:03:57.066Z,21.87
2019-01-30T11:06:19.075Z,19.10
2019-01-30T11:08:46.315Z,17.87
2019-01-30T11:11:13.543Z,20.37
2019-01-30T11:13:40.782Z,18.47
2019-01-30T11:16:08.037Z,20.67
2019-01-30T11:18:35.273Z,21.83
2019-01-30T11:21:02.623Z,17.57
2019-01-30T11:23:29.894Z,16.70
2019-01-30T11:25:57.140Z,13.47
2019-01-30T11:28:24.480Z,12.77
2019-01-30T11:30:51.730Z,39.57
2019-01-30T11:33:18.965Z,68.20
2019-01-30T11:35:46.240Z,52.50
2019-01-30T11:38:13.533Z,86.73
2019-01-30T11:40:40.863Z,42.63
2019-01-30T11:43:08.135Z,40.20
2019-01-30T11:45:37.452Z,18.13
2019-01-30T11:48:05.132Z,14.50
2019-01-30T11:50:32.510Z,9.17
2019-01-30T11:52:59.768Z,15.70
2019-01-30T11:55:27.026Z,7.00
2019-01-30T11:57:54.260Z,4.30
2019-01-30T12:00:32.108Z,7.10
2019-01-30T12:02:59.340Z,3.13
2019-01-30T12:05:26.561Z,3.07
2019-01-30T12:07:53.814Z,2.07
2019-01-30T12:10:40.549Z,2.47
2019-01-30T12:13:07.809Z,1.90
2019-01-30T12:15:35.063Z,1.60
2019-01-30T12:18:02.297Z,2.90
2019-01-30T12:20:29.575Z,1.63
2019-01-30T12:22:56.814Z,1.30
2019-01-30T12:25:24.070Z,0.93
2019-01-30T12:27:51.852Z,0.87
2019-01-30T12:30:21.064Z,1.40
2019-01-30T12:32:48.287Z,3.40
2019-01-30T12:35:15.560Z,1.90
2019-01-30T12:37:42.907Z,0.63
2019-01-30T12:40:12.848Z,0.60
2019-01-30T12:42:40.173Z,0.50
2019-01-30T12:45:10.143Z,0.73
2019-01-30T12:47:37.368Z,0.40
2019-01-30T12:50:07.437Z,1.00
2019-01-30T12:52:34.631Z,0.30
2019-01-30T12:55:01.897Z,0.40
2019-01-30T12:57:29.152Z,0.17
2019-01-30T12:59:56.405Z,0.30
2019-01-30T13:02:23.739Z,2.60
2019-01-30T13:04:51.027Z,0.57
2019-01-30T13:07:18.258Z,0.30
2019-01-30T13:09:45.616Z,0.20
2019-01-30T13:12:12.855Z,0.40
2019-01-30T13:14:40.199Z,0.37
2019-01-30T13:17:07.467Z,0.10
2019-01-30T13:19:34.823Z,0.40
2019-01-30T13:22:02.092Z,0.30
2019-01-30T13:24:29.316Z,0.40
2019-01-30T13:26:56.571Z,1.60
2019-01-30T13:29:23.888Z,2.07
2019-01-30T13:31:51.150Z,0.60
2019-01-30T13:34:18.495Z,1.03
2019-01-30T13:36:45.845Z,0.77
2019-01-30T13:39:13.118Z,1.20
2019-01-30T13:41:40.354Z,0.50
2019-01-30T13:44:08.436Z,0.53
2019-01-30T13:46:35.691Z,0.83
2019-01-30T13:49:03.052Z,2.50
2019-01-30T13:51:30.333Z,1.00
2019-01-30T13:53:57.640Z,1.20
2019-01-30T13:56:25.017Z,0.30
2019-01-30T13:58:52.296Z,1.50
2019-01-30T14:01:19.639Z,0.80
2019-01-30T14:03:46.911Z,0.53
2019-01-30T14:06:14.246Z,1.03
2019-01-30T14:08:41.489Z,1.33
2019-01-30T14:11:08.739Z,1.40
2019-01-30T14:13:35.983Z,1.57
2019-01-30T14:16:03.879Z,1.13
2019-01-30T14:18:31.175Z,1.47
2019-01-30T14:20:59.567Z,2.07
2019-01-30T14:23:26.855Z,1.17
2019-01-30T14:25:54.228Z,1.80
2019-01-30T14:28:21.664Z,2.53
2019-01-30T14:30:48.892Z,2.40
2019-01-30T14:33:16.171Z,1.07
2019-01-30T14:35:44.940Z,2.20
2019-01-30T14:38:12.334Z,1.30
2019-01-30T14:40:40.032Z,1.93
2019-01-30T14:43:07.269Z,2.13
2019-01-30T14:45:34.511Z,1.07
2019-01-30T14:48:01.819Z,1.83
2019-01-30T14:50:29.091Z,1.73
2019-01-30T14:52:56.361Z,1.50
2019-01-30T14:55:23.637Z,2.13
2019-01-30T14:57:51.463Z,1.83
2019-01-30T15:00:21.539Z,2.07
2019-01-30T15:02:48.775Z,3.43
2019-01-30T15:05:22.260Z,3.00
2019-01-30T15:07:45.350Z,2.50
2019-01-30T15:10:14.852Z,3.17
2019-01-30T15:12:42.226Z,3.00
2019-01-30T15:15:11.944Z,2.77
2019-01-30T15:17:39.643Z,3.50
2019-01-30T15:20:18.606Z,3.13
2019-01-30T15:22:45.927Z,4.27
2019-01-30T15:25:14.566Z,5.17
2019-01-30T15:27:41.931Z,3.80
2019-01-30T15:30:12.796Z,3.83
2019-01-30T15:32:40.109Z,4.40
2019-01-30T15:35:07.453Z,3.87
2019-01-30T15:37:35.072Z,3.87
2019-01-30T15:40:03.219Z,4.33
2019-01-30T15:42:30.470Z,3.87
2019-01-30T15:44:57.747Z,4.67
2019-01-30T15:47:25.012Z,4.00
2019-01-30T15:49:52.303Z,4.77
2019-01-30T15:52:19.719Z,4.73
2019-01-30T15:54:47.144Z,4.10
2019-01-30T15:57:14.602Z,4.60
2019-01-30T15:59:42.008Z,4.43
2019-01-30T16:02:09.513Z,5.97
2019-01-30T16:04:55.032Z,5.07
2019-01-30T16:07:23.528Z,5.33
2019-01-30T16:09:51.111Z,3.00
2019-01-30T16:12:18.533Z,3.30
2019-01-30T16:14:47.375Z,2.33
2019-01-30T16:17:14.909Z,2.27
2019-01-30T16:19:44.279Z,2.30
2019-01-30T16:22:11.658Z,2.67
2019-01-30T16:24:38.898Z,2.53
2019-01-30T16:27:06.151Z,2.43
2019-01-30T16:29:33.447Z,2.30
2019-01-30T16:32:00.816Z,2.00
2019-01-30T16:34:28.632Z,1.67
2019-01-30T16:36:56.241Z,1.70
2019-01-30T16:39:23.615Z,2.20
2019-01-30T16:41:50.938Z,2.40
2019-01-30T16:44:18.672Z,2.30
2019-01-30T16:46:46.020Z,2.17
2019-01-30T16:49:22.309Z,2.17
2019-01-30T16:51:49.585Z,2.30
2019-01-30T16:54:16.871Z,2.10
2019-01-30T16:56:53.450Z,1.97
2019-01-30T16:59:20.727Z,2.50
2019-01-30T17:01:47.992Z,2.30
2019-01-30T17:04:15.331Z,2.10
2019-01-30T17:06:43.911Z,2.20
2019-01-30T17:09:11.153Z,2.10
2019-01-30T17:11:39.098Z,2.83
2019-01-30T17:14:06.452Z,2.10
2019-01-30T17:16:33.715Z,4.57
2019-01-30T17:19:41.514Z,2.70
2019-01-30T17:22:47.231Z,2.20
2019-01-30T17:25:15.748Z,2.40
2019-01-30T17:27:52.704Z,2.17
2019-01-30T17:30:34.613Z,2.80
2019-01-30T17:35:58.396Z,2.40
2019-01-30T17:38:36.588Z,3.07
2019-01-30T17:41:32.070Z,2.50
2019-01-30T17:44:03.978Z,2.50
2019-01-30T17:46:51.679Z,3.27
2019-01-30T17:49:20.702Z,2.87
2019-01-30T17:51:48.352Z,2.63
2019-01-30T17:54:18.221Z,3.27
2019-01-30T17:56:45.118Z,3.37
2019-01-30T17:59:21.780Z,3.13
2019-01-30T18:01:49.255Z,3.33
2019-01-30T18:04:16.674Z,3.57
2019-01-30T18:06:43.972Z,3.63
2019-01-30T18:09:32.556Z,3.57
2019-01-30T18:12:10.285Z,3.30
2019-01-30T18:14:37.567Z,3.53
2019-01-30T18:17:05.030Z,3.63
2019-01-30T18:19:32.671Z,3.87
2019-01-30T18:22:00.205Z,3.73
2019-01-30T18:24:27.594Z,3.87
2019-01-30T18:26:55.040Z,3.70
2019-01-30T18:29:22.324Z,4.50
2019-01-30T18:31:54.344Z,5.57
2019-01-30T18:34:22.455Z,5.50
2019-01-30T18:36:52.087Z,5.83
2019-01-30T18:39:19.916Z,6.30
2019-01-30T18:41:51.721Z,6.13
2019-01-30T18:45:02.839Z,5.93
2019-01-30T18:47:30.598Z,6.43
2019-01-30T18:50:08.687Z,7.60
2019-01-30T18:52:36.467Z,8.33
2019-01-30T18:55:05.447Z,6.90
2019-01-30T18:57:33.297Z,6.30
2019-01-30T19:00:01.030Z,5.40
2019-01-30T19:02:32.250Z,4.50
2019-01-30T19:05:00.018Z,3.63
2019-01-30T19:07:27.920Z,3.50
2019-01-30T19:09:55.539Z,4.43
2019-01-30T19:12:24.022Z,3.70
2019-01-30T19:14:52.412Z,3.20
2019-01-30T19:17:20.281Z,4.73
2019-01-30T19:19:48.084Z,3.60
2019-01-30T19:22:18.541Z,3.47
2019-01-30T19:24:45.980Z,2.37
2019-01-30T19:27:14.121Z,3.37
2019-01-30T19:29:41.738Z,2.87
2019-01-30T19:32:10.243Z,3.90
2019-01-30T19:34:38.164Z,5.07
2019-01-30T19:37:05.526Z,2.77
2019-01-30T19:39:34.085Z,2.83
2019-01-30T19:42:02.328Z,3.13
2019-01-30T19:44:31.961Z,2.37
2019-01-30T19:46:59.617Z,2.63
2019-01-30T19:49:27.874Z,2.63
2019-01-30T19:51:56.241Z,2.73
2019-01-30T19:54:24.337Z,3.50
2019-01-30T19:56:51.737Z,5.73
2019-01-30T19:59:19.220Z,3.83
2019-01-30T20:04:46.809Z,2.53
2019-01-30T20:07:15.030Z,4.23
2019-01-30T20:09:45.045Z,6.77
2019-01-30T20:12:12.658Z,2.10
2019-01-30T20:19:06.466Z,2.20
2019-01-30T20:51:22.011Z,2.93
2019-01-30T20:53:49.457Z,5.97
2019-01-30T20:56:16.819Z,7.87
2019-01-30T20:58:44.195Z,3.27
2019-01-30T21:01:11.864Z,2.07
2019-01-30T21:03:39.155Z,4.87
2019-01-30T21:06:06.591Z,9.63
2019-01-30T21:08:33.828Z,11.47
2019-01-30T21:11:01.103Z,5.70
2019-01-30T21:13:28.373Z,3.97
2019-01-30T21:16:38.648Z,7.63
2019-01-30T21:22:31.175Z,7.07
2019-01-30T21:24:58.436Z,3.00
2019-01-30T21:27:25.764Z,4.63
2019-01-30T21:29:53.524Z,3.70
2019-01-30T21:32:20.936Z,5.90
2019-01-30T21:34:48.211Z,5.17
2019-01-30T21:37:15.500Z,8.87
2019-01-30T21:39:42.775Z,8.67
2019-01-30T21:42:10.029Z,4.27
2019-01-30T21:44:39.386Z,4.97
2019-01-30T21:47:06.880Z,4.03
2019-01-30T21:49:34.134Z,8.73
2019-01-30T21:52:01.480Z,2.97
2019-01-30T21:54:28.914Z,7.40
2019-01-30T21:56:56.290Z,8.63
2019-01-30T21:59:23.548Z,5.67
2019-01-30T22:01:52.239Z,4.77
2019-01-30T22:04:19.535Z,6.63
2019-01-30T22:06:46.810Z,6.00
2019-01-30T22:09:14.147Z,2.30
2019-01-30T22:11:41.453Z,6.23
2019-01-30T22:14:08.789Z,3.57
2019-01-30T22:16:36.144Z,3.73
2019-01-30T22:19:03.523Z,6.37
2019-01-30T22:21:30.854Z,6.97
2019-01-30T22:24:17.684Z,7.53
2019-01-30T22:26:44.938Z,4.73
2019-01-30T22:29:12.194Z,8.33
2019-01-30T22:31:49.680Z,6.23
2019-01-30T22:34:17.044Z,5.90
2019-01-30T22:36:44.305Z,9.43
2019-01-30T22:39:31.000Z,6.47
2019-01-30T22:41:58.401Z,6.70
2019-01-30T22:44:25.664Z,7.40
2019-01-30T22:46:53.000Z,9.20
2019-01-30T22:49:20.493Z,10.20
2019-01-30T22:51:47.916Z,10.53
2019-01-30T22:54:15.373Z,6.80
2019-01-30T22:56:43.036Z,8.37
2019-01-30T22:59:10.415Z,16.20
2019-01-30T23:01:45.430Z,7.87
2019-01-30T23:04:22.927Z,3.70
2019-01-30T23:07:13.417Z,7.23
2019-01-30T23:10:26.571Z,6.83
2019-01-30T23:13:24.095Z,8.27
2019-01-30T23:16:42.848Z,10.83
2019-01-30T23:20:10.321Z,6.07
2019-01-30T23:23:12.695Z,14.03
2019-01-30T23:26:07.991Z,11.10
2019-01-30T23:29:09.712Z,5.20
2019-01-30T23:32:01.253Z,8.23
2019-01-30T23:35:16.561Z,13.77
2019-01-30T23:38:12.519Z,15.73
2019-01-30T23:41:02.052Z,19.30
2019-01-30T23:44:02.400Z,6.67
2019-01-30T23:47:05.906Z,7.77
2019-01-30T23:50:39.386Z,17.57
2019-01-30T23:53:50.940Z,8.93
2019-01-30T23:56:39.669Z,8.83
2019-01-30T23:59:59.979Z,9.43
